Time;durP1;ratioP1;P1;durP2;ratioP2;P2;SDS_P1;SDS_P2;PMS_P1;PMS_P2;Temp;Humidity;BMP_temperature;BMP_pressure;BME280_temperature;BME280_humidity;BME280_pressure;Samples;Min_cycle;Max_cycle;Signal;HPM_P1;HPM_P2
2021/05/05 00:09:45;;;;;;;10.68;6.25;;;;;;;10.36;100.00;98790.06;714427;1200;114043;-75
2021/05/05 00:25:07;;;;;;;15.10;7.50;;;;;;;10.27;100.00;98765.67;714400;1176;114434;-76
2021/05/05 00:40:28;;;;;;;15.90;7.23;;;;;;;10.14;100.00;98759.16;714395;1202;115304;-76
2021/05/05 00:55:48;;;;;;;10.53;6.00;;;;;;;10.06;100.00;98748.71;714182;1200;114840;-76
2021/05/05 01:11:09;;;;;;;10.90;5.83;;;;;;;10.02;100.00;98755.28;714196;1205;114164;-75
2021/05/05 01:26:30;;;;;;;10.28;5.13;;;;;;;9.99;100.00;98739.91;714365;1179;113852;-75
2021/05/05 01:41:50;;;;;;;9.63;5.30;;;;;;;9.94;100.00;98765.80;714468;1200;114135;-76
2021/05/05 01:57:20;;;;;;;7.58;5.20;;;;;;;9.95;100.00;98770.02;714449;1200;114283;-76
2021/05/05 02:12:41;;;;;;;61.98;23.63;;;;;;;9.95;100.00;98749.91;714662;1200;113638;-75
2021/05/05 02:28:02;;;;;;;8.60;4.40;;;;;;;9.78;100.00;98736.03;714162;1178;114003;-75
2021/05/05 02:43:22;;;;;;;23.65;8.35;;;;;;;9.58;100.00;98742.61;714489;1189;114324;-75
2021/05/05 02:58:43;;;;;;;29.30;12.80;;;;;;;9.40;100.00;98750.67;714410;1205;113754;-76
2021/05/05 03:14:03;;;;;;;7.48;4.33;;;;;;;9.32;100.00;98748.88;714722;1177;114275;-75
2021/05/05 03:29:23;;;;;;;4.70;2.60;;;;;;;9.53;100.00;98750.14;714843;1176;114309;-75
2021/05/05 03:44:44;;;;;;;9.10;5.03;;;;;;;9.70;100.00;98766.64;714359;1177;113555;-75
2021/05/05 04:00:07;;;;;;;7.28;3.88;;;;;;;9.83;100.00;98769.56;713820;1201;114221;-75
2021/05/05 04:15:27;;;;;;;7.63;3.18;;;;;;;9.85;100.00;98761.56;713824;1200;113656;-75
2021/05/05 04:31:07;;;;;;;4.17;1.90;;;;;;;9.78;100.00;98766.66;714133;1205;114079;-75
2021/05/05 04:46:27;;;;;;;3.28;2.40;;;;;;;9.99;100.00;98760.87;714160;1202;114483;-75
2021/05/05 05:01:47;;;;;;;5.13;3.10;;;;;;;10.17;100.00;98755.38;716443;1166;113594;-78
2021/05/05 05:17:08;;;;;;;11.65;3.23;;;;;;;10.51;100.00;98748.23;714506;1200;115841;-76
2021/05/05 05:32:28;;;;;;;4.88;2.95;;;;;;;10.80;100.00;98750.18;714182;1200;113946;-76
2021/05/05 05:47:49;;;;;;;7.00;2.60;;;;;;;11.13;100.00;98750.75;714240;1200;113661;-76
2021/05/05 06:03:09;;;;;;;4.53;2.40;;;;;;;11.45;99.82;98756.71;714390;1203;114214;-75
2021/05/05 06:18:30;;;;;;;6.53;3.68;;;;;;;11.70;95.25;98750.42;714501;1200;113525;-77
2021/05/05 06:33:50;;;;;;;12.00;3.60;;;;;;;11.99;94.81;98750.45;714506;1193;114683;-76
2021/05/05 06:49:12;;;;;;;9.35;4.23;;;;;;;12.38;91.98;98751.16;714391;1204;114755;-77
2021/05/05 07:04:32;;;;;;;12.53;5.53;;;;;;;11.93;89.24;98751.16;714444;1204;114061;-81
2021/05/05 07:19:54;;;;;;;11.40;3.13;;;;;;;12.80;84.47;98741.69;715968;1176;113957;-79
2021/05/05 07:35:16;;;;;;;5.53;2.70;;;;;;;13.36;76.12;98741.98;714706;1200;113860;-78
2021/05/05 07:50:37;;;;;;;10.18;5.53;;;;;;;13.40;74.19;98746.69;714181;1200;114453;-80
2021/05/05 08:05:57;;;;;;;6.97;2.57;;;;;;;14.87;69.07;98774.81;714501;1200;114399;-79
2021/05/05 08:21:19;;;;;;;6.30;2.20;;;;;;;14.05;68.15;98745.68;714437;1200;113509;-80
2021/05/05 08:36:40;;;;;;;6.40;2.73;;;;;;;14.87;68.09;98743.94;714538;1200;114975;-79
2021/05/05 08:52:07;;;;;;;13.80;5.43;;;;;;;14.08;65.94;98763.73;714419;1177;113799;-80
2021/05/05 09:07:33;;;;;;;11.03;4.08;;;;;;;15.28;64.37;98734.22;714572;1205;113929;-79
2021/05/05 09:22:56;;;;;;;6.78;2.65;;;;;;;14.77;62.43;98744.34;714258;1199;115220;-76
2021/05/05 09:38:17;;;;;;;7.53;3.30;;;;;;;15.10;55.45;98740.93;714574;1199;114232;-78
2021/05/05 09:53:38;;;;;;;6.43;3.03;;;;;;;14.79;54.00;98758.16;714331;1200;113730;-78
2021/05/05 10:09:00;;;;;;;5.15;2.70;;;;;;;14.97;55.50;98767.33;717547;1200;113783;-78
2021/05/05 10:24:24;;;;;;;5.20;2.30;;;;;;;16.44;53.82;98776.92;714331;1200;113998;-80
2021/05/05 10:39:46;;;;;;;7.20;3.67;;;;;;;16.23;52.16;98764.79;714147;1200;114317;-79
2021/05/05 10:55:12;;;;;;;4.15;1.85;;;;;;;14.97;51.58;98777.89;714329;1177;113643;-77
2021/05/05 11:10:34;;;;;;;4.13;2.15;;;;;;;15.24;49.27;98793.77;714571;1199;114379;-74
2021/05/05 11:26:13;;;;;;;8.05;2.93;;;;;;;14.78;50.45;98772.37;714961;1200;115253;-75
2021/05/05 11:41:34;;;;;;;6.23;2.78;;;;;;;14.38;51.22;98789.86;714509;1203;113745;-73
2021/05/05 11:57:06;;;;;;;5.48;3.18;;;;;;;13.94;52.69;98816.39;714643;1203;113596;-73
2021/05/05 12:12:28;;;;;;;5.83;2.40;;;;;;;14.59;53.72;98810.03;714589;1203;113578;-75
2021/05/05 12:28:01;;;;;;;8.40;2.60;;;;;;;14.62;51.51;98814.91;714164;1205;114184;-76
2021/05/05 12:43:27;;;;;;;4.10;1.88;;;;;;;14.24;52.81;98797.70;714143;1205;113458;-75
2021/05/05 12:58:48;;;;;;;4.30;2.43;;;;;;;13.40;53.69;98803.83;714728;1200;114832;-76
2021/05/05 13:14:16;;;;;;;6.38;2.55;;;;;;;13.72;54.67;98791.10;714160;1203;113782;-76
2021/05/05 13:29:53;;;;;;;11.53;4.10;;;;;;;15.30;53.46;98769.19;714275;1200;114533;-77
2021/05/05 13:45:15;;;;;;;11.08;6.95;;;;;;;16.43;52.29;98762.05;713872;1204;113880;-75
2021/05/05 14:00:35;;;;;;;8.28;4.20;;;;;;;16.33;52.22;98746.64;713967;1203;113705;-79
2021/05/05 14:15:58;;;;;;;9.53;3.08;;;;;;;19.41;47.61;98754.16;713959;1193;113547;-78
2021/05/05 14:31:19;;;;;;;10.30;4.20;;;;;;;19.28;43.98;98722.45;714311;1203;114577;-74
2021/05/05 15:01:59;;;;;;;5.13;3.70;;;;;;;15.04;54.07;98733.00;714315;1200;115415;-73
2021/05/05 15:48:44;;;;;;;7.50;3.87;;;;;;;14.19;50.86;98707.02;714191;1177;113813;-76
2021/05/05 16:19:55;;;;;;;31.65;15.75;;;;;;;12.88;55.62;98764.44;715409;1177;113902;-75
2021/05/05 17:06:52;;;;;;;23.48;11.93;;;;;;;12.45;58.18;98770.44;716094;1176;113789;-75
2021/05/05 17:22:15;;;;;;;20.18;7.15;;;;;;;12.05;57.73;98740.20;715568;1199;115214;-74
2021/05/05 18:40:08;;;;;;;16.73;6.50;;;;;;;10.47;64.31;98743.31;713723;1200;115363;-74
2021/05/05 23:53:58;;;;;;;2.13;1.28;;;;;;;8.04;79.03;98911.82;713673;1198;113289;-76
